Time;durP1;ratioP1;P1;durP2;ratioP2;P2;SDS_P1;SDS_P2;PMS_P1;PMS_P2;Temp;Humidity;BMP_temperature;BMP_pressure;BME280_temperature;BME280_humidity;BME280_pressure;Samples;Min_cycle;Max_cycle;Signal;HPM_P1;HPM_P2
2024/02/13 00:02:19;;;;;;;12.18;3.67;;;;;;;4.86;100.00;100168.47;5014013;28;20103;-76
2024/02/13 00:04:45;;;;;;;23.13;4.40;;;;;;;4.95;100.00;100199.38;5013553;28;20152;-77
2024/02/13 00:07:10;;;;;;;15.60;4.03;;;;;;;4.88;100.00;100200.91;5006138;28;20042;-78
2024/02/13 00:09:35;;;;;;;18.67;4.87;;;;;;;4.94;100.00;100213.59;5001876;28;20041;-77
2024/02/13 00:12:01;;;;;;;16.67;5.63;;;;;;;5.02;100.00;100236.69;4994545;28;20029;-78
2024/02/13 00:14:26;;;;;;;28.85;7.30;;;;;;;5.11;100.00;100235.03;5003385;28;20285;-77
2024/02/13 00:16:52;;;;;;;11.63;4.35;;;;;;;5.08;100.00;100241.44;5010814;28;20042;-77
2024/02/13 00:19:17;;;;;;;18.13;4.50;;;;;;;4.97;100.00;100229.19;5008508;28;20037;-75
2024/02/13 00:21:43;;;;;;;22.58;6.07;;;;;;;4.88;100.00;100219.44;4991533;28;20042;-78
2024/02/13 00:24:08;;;;;;;13.25;4.05;;;;;;;4.89;100.00;100221.09;5007043;28;20480;-78
2024/02/13 00:26:34;;;;;;;25.73;5.28;;;;;;;4.73;100.00;100218.16;5005215;28;20076;-75
2024/02/13 00:29:01;;;;;;;15.15;4.35;;;;;;;4.69;100.00;100232.63;5010020;28;20547;-75
2024/02/13 00:31:28;;;;;;;19.63;6.22;;;;;;;4.63;100.00;100232.19;5003827;28;20495;-78
2024/02/13 00:33:54;;;;;;;13.55;5.60;;;;;;;4.54;100.00;100237.47;5013125;28;20034;-74
2024/02/13 00:36:21;;;;;;;18.00;5.50;;;;;;;4.53;100.00;100265.72;4986266;28;20073;-76
2024/02/13 00:38:47;;;;;;;19.80;6.13;;;;;;;4.35;100.00;100247.00;5013704;28;20014;-78
2024/02/13 00:41:12;;;;;;;14.05;4.93;;;;;;;4.30;100.00;100278.28;5005780;28;20040;-75
2024/02/13 00:43:38;;;;;;;26.05;8.55;;;;;;;4.33;100.00;100287.75;5008485;28;20038;-75
2024/02/13 00:46:03;;;;;;;14.65;5.35;;;;;;;4.31;100.00;100305.56;5004533;28;20126;-78
2024/02/13 00:48:30;;;;;;;17.00;5.68;;;;;;;4.26;100.00;100310.41;5012843;28;20070;-75
2024/02/13 00:50:56;;;;;;;15.98;6.28;;;;;;;4.26;100.00;100326.25;5004715;28;20048;-77
2024/02/13 00:53:21;;;;;;;22.45;5.53;;;;;;;4.10;100.00;100324.94;5000712;28;20101;-77
2024/02/13 00:55:47;;;;;;;23.05;5.70;;;;;;;4.20;100.00;100352.25;5009942;28;20025;-77
2024/02/13 00:58:13;;;;;;;;;;;;;;;4.10;100.00;100343.44;5002236;28;20040;-76
2024/02/13 01:00:41;;;;;;;23.17;7.32;;;;;;;4.11;100.00;100354.84;4991310;28;19917;-76
2024/02/13 01:03:07;;;;;;;22.77;6.10;;;;;;;4.02;100.00;100356.44;5006209;28;20076;-77
2024/02/13 01:05:32;;;;;;;29.67;7.20;;;;;;;3.94;100.00;100356.28;5003093;28;21640;-77
2024/02/13 01:07:58;;;;;;;34.05;7.05;;;;;;;3.97;100.00;100382.44;5004094;28;20026;-76
2024/02/13 01:10:24;;;;;;;22.50;6.18;;;;;;;4.01;100.00;100408.47;5002684;28;20038;-74
2024/02/13 01:12:50;;;;;;;26.02;5.97;;;;;;;4.05;100.00;100411.69;5003750;28;20030;-74
2024/02/13 01:15:16;;;;;;;24.90;7.13;;;;;;;4.10;100.00;100427.16;5004666;28;20088;-77
2024/02/13 01:17:42;;;;;;;19.63;5.88;;;;;;;4.12;100.00;100436.63;5008387;28;20069;-77
2024/02/13 01:20:11;;;;;;;23.33;5.78;;;;;;;4.15;100.00;100439.00;5008452;28;20087;-78
2024/02/13 01:22:37;;;;;;;20.92;7.50;;;;;;;4.31;100.00;100464.13;4997847;28;20025;-75
2024/02/13 01:25:05;;;;;;;;;;;;;;;4.41;100.00;100483.56;5006358;28;20041;-76
2024/02/13 01:27:30;;;;;;;28.83;8.05;;;;;;;4.39;100.00;100469.63;5007255;28;20235;-77
2024/02/13 01:29:56;;;;;;;23.88;6.25;;;;;;;4.35;100.00;100470.84;5008845;28;20026;-78
2024/02/13 01:32:24;;;;;;;28.10;5.88;;;;;;;4.46;100.00;100489.28;5004972;28;20032;-78
2024/02/13 01:34:49;;;;;;;24.27;5.50;;;;;;;4.44;100.00;100492.03;5011389;28;20060;-77
2024/02/13 01:37:15;;;;;;;23.55;6.13;;;;;;;4.44;100.00;100496.50;4992354;28;20435;-77
2024/02/13 01:39:40;;;;;;;19.93;6.67;;;;;;;4.57;100.00;100501.63;5015925;28;20045;-78
2024/02/13 01:42:06;;;;;;;38.40;7.43;;;;;;;4.54;100.00;100497.41;4993317;28;20038;-78
2024/02/13 01:44:31;;;;;;;25.27;7.97;;;;;;;4.55;100.00;100495.59;5018557;28;20042;-77
2024/02/13 01:46:57;;;;;;;21.00;6.20;;;;;;;4.44;100.00;100485.94;5015729;28;20053;-76
2024/02/13 01:49:23;;;;;;;17.88;5.75;;;;;;;4.45;100.00;100479.69;5003936;28;20042;-77
2024/02/13 01:51:51;;;;;;;32.42;7.78;;;;;;;4.46;100.00;100484.00;4994879;28;20914;-76
2024/02/13 01:54:16;;;;;;;18.95;5.07;;;;;;;4.49;100.00;100494.31;5006141;28;20041;-78
2024/02/13 01:56:46;;;;;;;25.58;6.75;;;;;;;4.64;100.00;100511.53;4994714;28;20057;-77
2024/02/13 01:59:14;;;;;;;24.33;6.20;;;;;;;4.62;100.00;100499.41;5008624;28;20042;-77
2024/02/13 02:01:40;;;;;;;24.48;7.38;;;;;;;4.75;100.00;100497.41;5013881;28;20048;-77
2024/02/13 02:04:06;;;;;;;20.73;6.15;;;;;;;4.66;100.00;100490.25;5010685;28;20408;-77
2024/02/13 02:06:34;;;;;;;35.45;7.72;;;;;;;4.83;100.00;100512.63;5005551;28;20034;-76
2024/02/13 02:09:00;;;;;;;20.55;7.00;;;;;;;4.80;100.00;100495.19;4993756;28;20034;-77
2024/02/13 02:11:25;;;;;;;26.58;7.22;;;;;;;4.88;100.00;100493.69;5005133;28;20389;-76
2024/02/13 02:13:52;;;;;;;25.80;7.20;;;;;;;4.74;100.00;100486.94;5006432;28;20032;-76
2024/02/13 02:16:18;;;;;;;20.83;6.78;;;;;;;4.86;100.00;100504.41;5004022;28;20034;-78
2024/02/13 02:18:43;;;;;;;21.30;6.18;;;;;;;4.76;100.00;100479.72;4999406;28;20033;-75
2024/02/13 02:21:08;;;;;;;31.70;7.22;;;;;;;4.68;100.00;100479.53;5029551;28;20116;-75
2024/02/13 02:23:37;;;;;;;25.90;5.75;;;;;;;4.70;100.00;100481.06;5012856;28;20041;-74
2024/02/13 02:26:03;;;;;;;19.98;6.30;;;;;;;4.72;100.00;100473.00;5015446;28;20447;-76
2024/02/13 02:28:28;;;;;;;;;;;;;;;4.77;100.00;100481.38;5022680;28;20222;-78
2024/02/13 02:30:55;;;;;;;14.13;5.22;;;;;;;4.74;100.00;100471.91;5016688;28;20356;-74
2024/02/13 02:33:21;;;;;;;22.23;5.25;;;;;;;4.71;100.00;100461.59;5018663;28;20029;-77
2024/02/13 02:35:48;;;;;;;;;;;;;;;4.71;100.00;100471.34;5021504;28;20096;-78
2024/02/13 02:38:14;;;;;;;20.13;5.80;;;;;;;4.77;100.00;100476.94;5020976;28;19921;-75
2024/02/13 02:40:39;;;;;;;35.53;8.15;;;;;;;4.73;100.00;100475.53;5028361;28;20051;-75
2024/02/13 02:43:05;;;;;;;21.87;8.23;;;;;;;4.70;100.00;100474.94;5026672;28;20065;-77
2024/02/13 02:45:31;;;;;;;15.55;6.88;;;;;;;4.68;100.00;100471.59;5027476;28;20280;-78
2024/02/13 02:47:56;;;;;;;26.92;8.68;;;;;;;4.72;100.00;100486.25;5024754;28;20096;-77
2024/02/13 02:50:22;;;;;;;24.08;8.73;;;;;;;4.79;100.00;100490.88;5009698;28;20037;-75
2024/02/13 02:52:48;;;;;;;23.45;9.20;;;;;;;4.73;100.00;100487.91;5030886;28;20064;-75
2024/02/13 02:55:15;;;;;;;25.60;10.25;;;;;;;4.75;100.00;100500.06;5025528;28;20060;-74
2024/02/13 02:57:41;;;;;;;31.27;10.65;;;;;;;4.61;100.00;100479.22;5029857;28;20033;-77
2024/02/13 03:00:09;;;;;;;29.60;10.07;;;;;;;4.65;100.00;100493.84;5029592;28;20128;-77
2024/02/13 03:02:36;;;;;;;25.45;11.25;;;;;;;4.75;100.00;100505.34;5006316;28;20293;-78
2024/02/13 03:05:03;;;;;;;27.15;11.23;;;;;;;4.72;100.00;100505.59;5009841;28;20025;-76
2024/02/13 03:07:29;;;;;;;28.02;10.02;;;;;;;4.76;100.00;100498.25;5004916;28;20966;-74
2024/02/13 03:09:55;;;;;;;20.88;10.25;;;;;;;4.74;100.00;100500.16;5025920;28;20129;-78
2024/02/13 03:12:21;;;;;;;25.02;10.60;;;;;;;4.73;100.00;100499.34;5029340;28;20041;-77
2024/02/13 03:14:50;;;;;;;28.15;9.50;;;;;;;4.63;100.00;100499.25;5026274;28;20044;-76
2024/02/13 03:17:17;;;;;;;19.73;9.25;;;;;;;4.63;100.00;100504.53;5006811;28;20030;-78
2024/02/13 03:19:42;;;;;;;19.40;9.73;;;;;;;4.67;100.00;100520.19;5017437;28;20033;-76
2024/02/13 03:22:07;;;;;;;24.23;9.73;;;;;;;4.64;100.00;100526.56;5014385;28;20053;-78
2024/02/13 03:24:33;;;;;;;23.83;8.85;;;;;;;4.70;100.00;100544.53;5032127;28;20033;-77
2024/02/13 03:27:00;;;;;;;20.77;7.10;;;;;;;4.81;100.00;100552.41;5033897;28;20076;-77
2024/02/13 03:29:25;;;;;;;18.83;8.02;;;;;;;4.70;100.00;100541.06;5013616;28;20021;-77
2024/02/13 03:31:51;;;;;;;22.52;9.18;;;;;;;4.76;100.00;100559.06;5011859;28;20064;-75
2024/02/13 03:34:16;;;;;;;19.73;9.10;;;;;;;4.84;100.00;100572.47;5023986;28;20030;-75
2024/02/13 03:36:42;;;;;;;18.60;8.13;;;;;;;4.83;100.00;100560.22;5015397;28;20029;-76
2024/02/13 03:39:08;;;;;;;22.02;8.43;;;;;;;4.86;100.00;100583.75;5028094;28;20365;-78
2024/02/13 03:41:45;;;;;;;30.25;9.75;;;;;;;4.75;100.00;100583.81;5024653;28;20037;-75
2024/02/13 03:44:11;;;;;;;16.83;8.30;;;;;;;4.76;100.00;100569.66;5004199;28;20156;-76
2024/02/13 03:46:42;;;;;;;28.73;9.30;;;;;;;4.81;100.00;100585.97;5003267;28;20057;-78
2024/02/13 03:49:08;;;;;;;27.23;8.25;;;;;;;4.67;100.00;100586.28;5007057;28;20045;-77
2024/02/13 03:51:40;;;;;;;26.88;10.02;;;;;;;4.73;100.00;100597.19;5023407;28;20036;-74
2024/02/13 03:54:07;;;;;;;24.83;10.07;;;;;;;4.74;100.00;100598.03;5010631;28;20044;-78
2024/02/13 03:56:33;;;;;;;28.00;9.55;;;;;;;4.71;100.00;100593.00;5027219;28;20029;-79
2024/02/13 03:58:59;;;;;;;17.77;8.55;;;;;;;4.62;100.00;100579.56;5025208;28;20502;-74
2024/02/13 04:01:25;;;;;;;21.20;8.32;;;;;;;4.74;100.00;100590.09;5026710;28;20121;-74
2024/02/13 04:03:50;;;;;;;26.63;9.77;;;;;;;4.68;100.00;100577.38;5008969;28;20076;-77
2024/02/13 04:06:16;;;;;;;19.50;9.25;;;;;;;4.68;100.00;100580.03;5024595;28;20526;-78
2024/02/13 04:08:45;;;;;;;20.75;8.68;;;;;;;4.73;100.00;100567.25;5012439;28;20033;-76
2024/02/13 04:11:11;;;;;;;17.67;7.20;;;;;;;4.55;100.00;100562.53;5021467;28;20128;-78
2024/02/13 04:13:37;;;;;;;24.33;9.38;;;;;;;4.57;100.00;100571.19;5008369;28;20048;-78
2024/02/13 04:16:03;;;;;;;15.77;8.80;;;;;;;4.61;100.00;100577.03;5027772;28;20551;-78
2024/02/13 04:18:28;;;;;;;22.67;8.18;;;;;;;4.67;100.00;100584.47;5023066;28;20988;-78
2024/02/13 04:20:54;;;;;;;18.38;7.28;;;;;;;4.68;100.00;100577.38;5025968;28;20095;-76
2024/02/13 04:23:19;;;;;;;18.67;8.45;;;;;;;4.55;100.00;100557.25;5018292;28;20378;-74
2024/02/13 04:25:45;;;;;;;18.45;7.38;;;;;;;4.57;100.00;100563.25;5024915;28;20116;-78
2024/02/13 04:28:10;;;;;;;17.10;6.88;;;;;;;4.59;100.00;100556.03;5028424;28;20033;-78
2024/02/13 04:30:40;;;;;;;24.03;8.20;;;;;;;4.47;100.00;100553.56;5027632;28;20049;-76
2024/02/13 04:33:08;;;;;;;13.80;6.40;;;;;;;4.54;100.00;100560.88;5028111;28;20061;-76
2024/02/13 04:35:34;;;;;;;16.88;5.80;;;;;;;4.49;100.00;100551.63;5025183;28;20022;-76
2024/02/13 04:38:00;;;;;;;12.70;6.57;;;;;;;4.44;100.00;100538.81;5024674;28;20033;-77
2024/02/13 04:40:25;;;;;;;20.40;5.85;;;;;;;4.47;100.00;100543.00;5004562;28;20494;-77
2024/02/13 04:42:51;;;;;;;15.88;5.70;;;;;;;4.39;100.00;100525.97;5029044;28;20045;-78
2024/02/13 04:45:16;;;;;;;13.23;5.28;;;;;;;4.25;100.00;100512.22;5028489;28;20064;-78
2024/02/13 04:47:42;;;;;;;9.02;4.75;;;;;;;4.36;100.00;100536.81;5029027;28;20025;-77
2024/02/13 04:50:07;;;;;;;20.25;5.43;;;;;;;4.45;100.00;100540.50;5023522;28;20487;-77
2024/02/13 04:52:34;;;;;;;16.20;7.15;;;;;;;4.43;100.00;100526.56;5007869;28;20594;-78
2024/02/13 04:54:59;;;;;;;;;;;;;;;4.27;100.00;100531.44;4991231;28;20080;-78
2024/02/13 04:57:25;;;;;;;16.10;6.57;;;;;;;4.32;100.00;100543.31;5003765;28;19914;-78
2024/02/13 04:59:50;;;;;;;14.07;5.93;;;;;;;4.36;100.00;100542.09;5010211;28;20045;-75
2024/02/13 05:02:18;;;;;;;21.42;7.60;;;;;;;4.38;100.00;100552.53;4995187;28;20081;-78
2024/02/13 05:07:31;;;;;;;13.75;6.80;;;;;;;4.44;100.00;100559.94;5006293;28;20555;-77
2024/02/13 05:09:59;;;;;;;23.60;8.90;;;;;;;4.46;100.00;100567.75;5011517;28;20108;-77
2024/02/13 05:12:25;;;;;;;25.80;9.00;;;;;;;4.56;100.00;100584.53;5006292;28;20042;-76
2024/02/13 05:14:52;;;;;;;21.10;8.98;;;;;;;4.68;100.00;100594.06;4995657;28;20056;-77
2024/02/13 05:17:20;;;;;;;23.08;8.98;;;;;;;4.57;100.00;100576.47;4976516;28;20489;-76
2024/02/13 05:19:48;;;;;;;19.63;8.23;;;;;;;4.53;100.00;100571.56;5008588;28;20409;-78
2024/02/13 05:22:15;;;;;;;18.05;8.68;;;;;;;4.51;100.00;100582.25;4999003;28;20025;-75
2024/02/13 05:24:40;;;;;;;27.15;10.30;;;;;;;4.41;100.00;100581.34;5010735;28;20276;-77
2024/02/13 05:27:09;;;;;;;26.95;9.35;;;;;;;4.40;100.00;100600.81;4995178;28;20030;-78
2024/02/13 05:29:43;;;;;;;29.90;9.43;;;;;;;4.45;100.00;100614.50;5003834;28;20042;-76
2024/02/13 05:32:09;;;;;;;20.25;9.45;;;;;;;4.59;100.00;100622.16;5004605;28;20045;-74
2024/02/13 05:34:35;;;;;;;36.78;10.95;;;;;;;4.53;100.00;100600.66;5008469;28;20026;-76
2024/02/13 05:37:01;;;;;;;;;;;;;;;4.53;100.00;100600.66;5011550;28;20076;-77
2024/02/13 05:39:29;;;;;;;25.77;10.30;;;;;;;4.51;100.00;100608.69;5005659;28;20448;-77
2024/02/13 05:41:55;;;;;;;17.45;9.40;;;;;;;4.57;100.00;100628.53;4994032;28;20029;-77
2024/02/13 05:44:24;;;;;;;22.30;10.32;;;;;;;4.53;100.00;100621.81;5001084;28;20037;-78
2024/02/13 05:46:51;;;;;;;22.70;9.68;;;;;;;4.44;100.00;100620.75;5006843;28;20034;-78
2024/02/13 05:49:16;;;;;;;29.80;10.65;;;;;;;4.46;100.00;100631.22;4988253;28;20034;-76
2024/02/13 05:51:44;;;;;;;27.05;11.77;;;;;;;4.50;100.00;100636.13;5004252;28;20516;-76
2024/02/13 05:54:11;;;;;;;25.15;11.27;;;;;;;4.61;100.00;100651.09;5002711;28;20042;-77
2024/02/13 05:56:36;;;;;;;38.00;11.68;;;;;;;4.61;100.00;100644.00;5018436;28;20026;-75
2024/02/13 05:59:03;;;;;;;28.65;12.13;;;;;;;4.43;100.00;100622.56;5009241;28;20474;-78
2024/02/13 06:01:29;;;;;;;;;;;;;;;4.53;100.00;100642.97;4985561;28;20046;-75
2024/02/13 06:03:56;;;;;;;27.05;10.90;;;;;;;4.57;100.00;100652.31;5008741;28;20391;-77
2024/02/13 06:06:22;;;;;;;29.58;11.45;;;;;;;4.57;100.00;100642.56;4999863;28;20042;-75
2024/02/13 06:08:48;;;;;;;28.15;11.30;;;;;;;4.59;100.00;100647.75;5003322;28;20048;-77
2024/02/13 06:11:14;;;;;;;;;;;;;;;4.61;100.00;100646.66;4999517;28;20409;-75
2024/02/13 06:13:44;;;;;;;31.65;13.23;;;;;;;4.57;100.00;100629.34;4999037;28;19910;-74
2024/02/13 06:16:10;;;;;;;27.25;11.98;;;;;;;4.54;100.00;100644.63;4990104;28;20038;-76
2024/02/13 06:18:35;;;;;;;34.33;12.00;;;;;;;4.52;100.00;100641.25;5000227;28;20024;-75
2024/02/13 06:21:00;;;;;;;25.23;12.13;;;;;;;4.68;100.00;100656.72;5000698;28;20469;-76
2024/02/13 06:23:26;;;;;;;31.08;12.95;;;;;;;4.53;100.00;100622.63;4996589;28;20030;-76
2024/02/13 06:25:51;;;;;;;26.23;11.33;;;;;;;4.47;100.00;100639.00;5011387;28;20045;-77
2024/02/13 06:28:16;;;;;;;28.88;11.88;;;;;;;4.34;100.00;100636.53;5016472;28;20370;-77
2024/02/13 06:30:44;;;;;;;30.10;11.90;;;;;;;4.54;100.00;100663.13;5001054;28;20404;-75
2024/02/13 06:33:10;;;;;;;26.80;11.00;;;;;;;4.44;100.00;100660.41;5026755;28;20271;-74
2024/02/13 06:35:35;;;;;;;;;;;;;;;4.42;100.00;100657.03;5011060;28;21125;-77
2024/02/13 06:38:00;;;;;;;30.63;11.88;;;;;;;4.40;100.00;100661.59;5026750;28;19909;-77
2024/02/13 06:40:26;;;;;;;30.20;12.67;;;;;;;4.40;100.00;100664.25;5027856;28;20033;-76
2024/02/13 06:42:51;;;;;;;30.48;11.13;;;;;;;4.40;100.00;100672.19;5010199;28;20276;-76
2024/02/13 06:45:17;;;;;;;35.43;13.50;;;;;;;4.25;100.00;100666.34;5019371;28;20049;-76
2024/02/13 06:47:42;;;;;;;32.38;13.20;;;;;;;4.21;100.00;100662.25;5025759;28;20036;-74
2024/02/13 06:50:11;;;;;;;38.58;13.00;;;;;;;4.31;100.00;100688.78;5008772;28;20037;-75
2024/02/13 06:52:40;;;;;;;27.55;11.98;;;;;;;4.34;100.00;100693.84;5008055;28;20079;-75
2024/02/13 06:55:07;;;;;;;32.25;11.95;;;;;;;4.12;100.00;100671.78;5028209;28;20097;-76
2024/02/13 06:57:35;;;;;;;29.95;12.60;;;;;;;4.00;100.00;100678.03;5021828;28;20029;-76
2024/02/13 07:00:13;;;;;;;29.35;11.27;;;;;;;4.14;100.00;100708.63;5026452;28;20404;-74
2024/02/13 07:02:41;;;;;;;29.48;11.23;;;;;;;4.23;100.00;100699.97;5019656;28;20743;-73
2024/02/13 07:05:08;;;;;;;27.83;11.68;;;;;;;4.25;100.00;100703.34;5010195;28;20024;-75
2024/02/13 07:07:34;;;;;;;22.25;10.60;;;;;;;4.17;100.00;100700.50;5026097;28;20515;-74
2024/02/13 07:10:00;;;;;;;21.98;9.95;;;;;;;4.29;100.00;100702.13;5027572;28;20029;-75
2024/02/13 07:12:25;;;;;;;28.75;12.27;;;;;;;4.41;100.00;100710.88;5027234;28;20049;-77
2024/02/13 07:14:51;;;;;;;27.00;10.37;;;;;;;4.30;100.00;100700.34;5027616;28;20038;-76
2024/02/13 07:17:16;;;;;;;29.42;11.43;;;;;;;4.36;100.00;100710.44;5009633;28;20475;-75
2024/02/13 07:19:42;;;;;;;22.17;9.75;;;;;;;4.49;100.00;100721.66;5025703;28;20045;-74
2024/02/13 07:22:08;;;;;;;31.75;11.30;;;;;;;4.30;100.00;100698.53;5025945;28;20117;-76
2024/02/13 07:24:37;;;;;;;25.52;10.32;;;;;;;4.36;100.00;100695.41;5025648;28;20029;-74
2024/02/13 07:27:05;;;;;;;27.23;9.95;;;;;;;4.32;100.00;100698.41;5025605;28;20033;-76
2024/02/13 07:29:31;;;;;;;25.13;11.45;;;;;;;4.46;100.00;100711.34;5022447;28;20038;-75
2024/02/13 07:31:58;;;;;;;31.75;12.23;;;;;;;4.46;100.00;100699.94;5024472;28;20124;-75
2024/02/13 07:34:23;;;;;;;;;;;;;;;4.23;100.00;100673.56;5023513;28;20025;-76
2024/02/13 07:36:48;;;;;;;25.75;9.57;;;;;;;4.22;100.00;100682.44;5017274;28;19924;-74
2024/02/13 07:39:14;;;;;;;21.65;10.60;;;;;;;4.32;100.00;100703.69;5017880;28;20033;-76
2024/02/13 07:41:44;;;;;;;25.20;12.57;;;;;;;4.13;100.00;100689.31;5017262;28;20034;-77
2024/02/13 07:44:10;;;;;;;25.45;11.05;;;;;;;4.40;100.00;100723.28;5022807;28;20439;-77
2024/02/13 07:46:37;;;;;;;28.35;12.10;;;;;;;4.42;100.00;100707.28;5021594;28;20038;-76
2024/02/13 07:49:03;;;;;;;27.15;11.25;;;;;;;4.70;100.00;100718.25;5010817;28;20861;-76
2024/02/13 07:51:28;;;;;;;33.30;11.95;;;;;;;4.93;100.00;100717.22;5005799;28;20147;-74
2024/02/13 07:53:54;;;;;;;33.13;12.27;;;;;;;5.00;100.00;100710.44;5025036;28;20034;-75
2024/02/13 07:56:25;;;;;;;21.58;10.65;;;;;;;4.88;100.00;100685.00;5025446;28;20288;-77
2024/02/13 07:58:50;;;;;;;24.75;10.68;;;;;;;5.11;100.00;100695.50;5026287;28;20029;-77
2024/02/13 08:01:22;;;;;;;26.13;11.00;;;;;;;5.00;100.00;100654.88;5001701;28;20052;-77
2024/02/13 08:03:48;;;;;;;23.15;9.85;;;;;;;4.78;100.00;100631.19;5001065;28;20048;-76
2024/02/13 08:06:14;;;;;;;22.77;10.55;;;;;;;4.63;100.00;100638.56;5001854;28;20107;-74
2024/02/13 08:08:39;;;;;;;24.63;10.13;;;;;;;4.83;100.00;100650.16;5000119;28;20117;-76
2024/02/13 08:11:04;;;;;;;26.20;11.77;;;;;;;4.68;100.00;100652.25;4986812;28;20044;-77
2024/02/13 08:13:30;;;;;;;33.17;11.93;;;;;;;4.63;100.00;100660.56;4981080;28;20297;-77
2024/02/13 08:15:55;;;;;;;34.20;12.32;;;;;;;4.68;100.00;100657.53;5003597;28;20081;-77
2024/02/13 08:18:21;;;;;;;26.43;11.00;;;;;;;4.68;100.00;100669.94;4983763;28;20038;-75
2024/02/13 08:20:46;;;;;;;26.60;12.98;;;;;;;4.88;100.00;100682.38;5019024;28;20296;-77
2024/02/13 08:23:12;;;;;;;20.90;10.17;;;;;;;4.86;100.00;100677.19;5018018;28;20037;-76
2024/02/13 08:25:37;;;;;;;23.40;11.70;;;;;;;4.67;100.00;100644.47;4996054;28;20818;-73
2024/02/13 08:28:03;;;;;;;27.20;11.70;;;;;;;4.98;100.00;100669.19;5016731;28;20304;-74
2024/02/13 08:30:30;;;;;;;26.65;12.80;;;;;;;5.04;100.00;100661.59;5012534;28;20288;-75
2024/02/13 08:32:56;;;;;;;23.92;10.45;;;;;;;5.00;100.00;100641.66;5015641;28;20075;-76
2024/02/13 08:35:22;;;;;;;33.47;12.95;;;;;;;5.00;100.00;100632.88;5016414;28;20038;-77
2024/02/13 08:37:50;;;;;;;23.05;11.73;;;;;;;5.30;100.00;100640.03;5017415;28;20076;-74
2024/02/13 08:40:19;;;;;;;25.83;11.40;;;;;;;5.19;100.00;100624.22;5012218;28;20037;-76
2024/02/13 08:42:45;;;;;;;26.92;10.63;;;;;;;5.13;100.00;100608.84;5004860;28;20061;-77
2024/02/13 08:45:10;;;;;;;27.27;11.70;;;;;;;5.25;100.00;100624.53;5003115;28;20456;-76
2024/02/13 08:47:36;;;;;;;23.48;11.10;;;;;;;5.34;100.00;100601.72;4995160;28;20391;-77
2024/02/13 08:50:03;;;;;;;27.83;10.63;;;;;;;5.35;100.00;100600.75;4997545;28;20041;-76
2024/02/13 08:52:28;;;;;;;20.05;11.32;;;;;;;5.40;100.00;100597.72;5004411;28;20048;-76
2024/02/13 08:54:54;;;;;;;27.88;12.32;;;;;;;5.28;100.00;100584.56;5004729;28;20622;-76
2024/02/13 08:57:19;;;;;;;24.33;11.30;;;;;;;5.04;100.00;100561.03;5005533;28;20034;-76
2024/02/13 08:59:47;;;;;;;23.33;11.52;;;;;;;5.35;100.00;100600.75;5003757;28;20042;-76
2024/02/13 09:02:13;;;;;;;21.85;12.80;;;;;;;5.42;100.00;100599.25;5007989;28;20420;-74
2024/02/13 09:04:38;;;;;;;29.33;12.30;;;;;;;5.72;100.00;100600.22;5010480;28;20029;-77
2024/02/13 09:07:04;;;;;;;24.50;12.63;;;;;;;5.39;100.00;100551.03;5015371;28;20161;-77
2024/02/13 09:09:32;;;;;;;21.38;11.43;;;;;;;5.22;100.00;100520.72;5014044;28;20041;-77
2024/02/13 09:12:02;;;;;;;21.55;10.85;;;;;;;5.37;100.00;100545.88;5016754;28;20037;-76
2024/02/13 09:14:31;;;;;;;27.80;10.63;;;;;;;5.34;100.00;100537.34;5016730;28;20041;-75
2024/02/13 09:16:57;;;;;;;27.60;12.23;;;;;;;5.28;100.00;100523.66;5020065;28;20551;-77
2024/02/13 09:19:25;;;;;;;25.95;12.63;;;;;;;5.42;100.00;100559.53;5009396;28;20045;-74
2024/02/13 09:21:51;;;;;;;24.50;12.30;;;;;;;5.71;100.00;100572.03;5014688;28;20041;-77
2024/02/13 09:24:16;;;;;;;26.70;12.15;;;;;;;5.64;100.00;100523.22;5012239;28;20607;-76
2024/02/13 09:26:42;;;;;;;30.58;12.38;;;;;;;5.32;100.00;100468.66;5014905;28;20042;-75
2024/02/13 09:29:07;;;;;;;25.23;12.27;;;;;;;5.65;100.00;100517.78;5012951;28;20091;-75
2024/02/13 09:31:33;;;;;;;21.98;11.73;;;;;;;5.63;100.00;100489.78;5011616;28;20787;-74
2024/02/13 09:33:59;;;;;;;24.30;12.20;;;;;;;5.38;100.00;100454.03;5004315;28;20026;-76
2024/02/13 09:36:24;;;;;;;21.52;10.38;;;;;;;5.53;100.00;100492.41;5004366;28;20063;-77
2024/02/13 09:38:50;;;;;;;33.45;12.88;;;;;;;5.75;100.00;100515.16;5016670;28;20087;-76
2024/02/13 09:41:16;;;;;;;27.27;12.02;;;;;;;6.04;100.00;100514.38;5014334;28;20041;-77
2024/02/13 09:43:42;;;;;;;26.17;13.43;;;;;;;5.91;100.00;100467.75;5014288;28;20037;-77
2024/02/13 09:46:09;;;;;;;30.83;12.13;;;;;;;5.98;100.00;100441.56;5015101;28;20052;-74
2024/02/13 09:48:37;;;;;;;21.20;10.10;;;;;;;5.97;100.00;100413.41;5008313;28;20041;-77
2024/02/13 09:51:17;;;;;;;20.77;10.90;;;;;;;5.78;100.00;100368.34;5008752;28;20041;-76
2024/02/13 09:53:43;;;;;;;23.40;10.48;;;;;;;5.94;100.00;100384.53;5005718;28;20037;-75
2024/02/13 09:56:12;;;;;;;23.30;11.30;;;;;;;6.05;100.00;100394.16;5012798;28;20404;-76
2024/02/13 09:58:37;;;;;;;23.63;11.48;;;;;;;6.13;100.00;100375.72;4999280;28;20066;-74
2024/02/13 10:01:05;;;;;;;19.45;11.35;;;;;;;6.24;100.00;100353.50;5016057;28;20058;-77
2024/02/13 10:03:30;;;;;;;18.45;10.55;;;;;;;6.12;100.00;100331.66;4994024;28;20038;-77
2024/02/13 10:05:55;;;;;;;23.67;11.35;;;;;;;6.36;100.00;100365.63;5018999;28;20033;-77
2024/02/13 10:08:27;;;;;;;27.80;10.87;;;;;;;6.52;100.00;100355.22;5012157;28;20049;-77
2024/02/13 10:11:03;;;;;;;20.80;10.82;;;;;;;6.94;100.00;100336.16;5011067;28;20755;-73
2024/02/13 10:13:35;;;;;;;26.45;10.70;;;;;;;7.02;100.00;100242.50;4995218;28;20121;-76
2024/02/13 10:16:00;;;;;;;26.25;10.95;;;;;;;6.53;100.00;100117.34;4994474;28;20030;-77
2024/02/13 10:18:26;;;;;;;25.73;11.65;;;;;;;6.95;100.00;100228.19;5012002;28;20037;-76
2024/02/13 10:20:52;;;;;;;24.55;10.68;;;;;;;7.37;100.00;100159.34;5016501;28;20041;-74
2024/02/13 10:23:23;;;;;;;25.92;10.25;;;;;;;8.49;100.00;100200.09;5015117;28;20408;-75
2024/02/13 10:25:48;;;;;;;22.13;10.25;;;;;;;8.62;100.00;99962.81;5000593;28;20076;-77
2024/02/13 10:28:16;;;;;;;21.50;9.77;;;;;;;8.33;100.00;99840.94;4999457;28;20083;-76
2024/02/13 10:30:48;;;;;;;20.52;10.05;;;;;;;7.96;100.00;99891.03;5013753;28;20038;-74
2024/02/13 10:33:15;;;;;;;24.25;12.05;;;;;;;7.55;100.00;99839.69;5015268;28;20044;-76
2024/02/13 10:35:40;;;;;;;22.40;10.93;;;;;;;7.60;100.00;99943.63;5016744;28;20396;-77
2024/02/13 10:38:08;;;;;;;17.40;10.45;;;;;;;7.67;100.00;99965.06;5016476;28;20041;-77
2024/02/13 10:40:39;;;;;;;26.92;11.35;;;;;;;6.90;100.00;99896.09;5015825;28;20065;-76
2024/02/13 10:43:07;;;;;;;22.05;12.00;;;;;;;6.81;100.00;99980.13;4993059;28;20030;-76
2024/02/13 10:45:35;;;;;;;20.50;11.27;;;;;;;6.75;100.00;100087.72;5008333;28;20030;-74
2024/02/13 10:48:22;;;;;;;20.80;11.73;;;;;;;6.88;100.00;100172.25;4990832;28;20034;-77
2024/02/13 10:50:51;;;;;;;23.40;12.43;;;;;;;6.88;100.00;100212.06;5008983;28;20065;-77
2024/02/13 10:53:19;;;;;;;21.92;11.05;;;;;;;6.36;100.00;100094.34;5014987;28;20037;-78
2024/02/13 10:55:46;;;;;;;17.48;10.55;;;;;;;6.55;100.00;100216.19;5016737;28;20076;-76
2024/02/13 10:58:13;;;;;;;22.38;11.48;;;;;;;6.27;100.00;100155.22;5011813;28;20069;-77
2024/02/13 11:00:40;;;;;;;25.05;11.15;;;;;;;6.49;100.00;100269.84;5016129;28;20433;-76
2024/02/13 11:03:07;;;;;;;21.95;11.18;;;;;;;6.76;100.00;100327.31;5016624;28;20025;-77
2024/02/13 11:05:35;;;;;;;18.77;10.35;;;;;;;6.94;100.00;100353.91;5005209;28;20038;-76
2024/02/13 11:08:02;;;;;;;20.02;11.25;;;;;;;6.78;100.00;100276.78;5015135;28;20037;-77
2024/02/13 11:10:34;;;;;;;21.42;10.38;;;;;;;6.92;100.00;100286.88;5001193;28;20597;-74
2024/02/13 11:13:01;;;;;;;25.70;11.45;;;;;;;6.73;100.00;100210.91;5005015;28;20092;-75
2024/02/13 11:15:29;;;;;;;25.10;13.18;;;;;;;6.90;100.00;100273.75;5014916;28;20048;-78
2024/02/13 11:17:55;;;;;;;22.15;11.75;;;;;;;6.85;100.00;100269.88;5009734;28;20030;-77